Time;durP1;ratioP1;P1;durP2;ratioP2;P2;SDS_P1;SDS_P2;PMS_P1;PMS_P2;Temp;Humidity;BMP_temperature;BMP_pressure;BME280_temperature;BME280_humidity;BME280_pressure;Samples;Min_cycle;Max_cycle;Signal;HPM_P1;HPM_P2
2022/07/03 00:01:57;;;;;;;7.07;3.80;;;;;;;16.86;72.77;101645.44;4720515;30;20131;-94
2022/07/03 00:04:26;;;;;;;6.60;3.75;;;;;;;16.83;74.80;101644.69;4723529;30;20159;-94
2022/07/03 00:06:53;;;;;;;6.32;3.55;;;;;;;16.81;74.26;101649.19;4711775;30;20043;-93
2022/07/03 00:09:22;;;;;;;6.38;3.20;;;;;;;16.69;75.42;101626.38;4738402;30;20505;-94
2022/07/03 00:11:51;;;;;;;5.82;3.13;;;;;;;16.65;73.75;101620.28;4723144;30;20032;-93
2022/07/03 00:14:17;;;;;;;7.65;3.20;;;;;;;16.67;75.52;101636.28;4723803;30;20036;-92
2022/07/03 00:16:42;;;;;;;4.93;2.60;;;;;;;16.65;75.08;101655.06;4723763;30;20097;-93
2022/07/03 00:19:10;;;;;;;3.72;2.50;;;;;;;16.55;73.95;101659.84;4706996;30;20406;-94
2022/07/03 00:21:51;;;;;;;7.68;2.70;;;;;;;16.57;73.91;101675.84;4706404;30;20032;-94
2022/07/03 00:24:29;;;;;;;;;;;;;;;16.77;71.86;101686.72;4723624;30;20212;-93
2022/07/03 00:27:06;;;;;;;6.35;2.88;;;;;;;16.59;72.06;101678.44;4728994;30;19925;-93
2022/07/03 00:29:37;;;;;;;4.80;3.00;;;;;;;16.43;72.35;101664.72;4708579;30;20068;-94
2022/07/03 00:32:06;;;;;;;12.63;4.95;;;;;;;16.34;72.53;101669.47;4723866;30;20047;-93
2022/07/03 00:34:36;;;;;;;10.60;7.68;;;;;;;16.42;72.66;101679.00;4720991;30;20028;-93
2022/07/03 00:37:30;;;;;;;13.00;8.68;;;;;;;16.47;71.82;101685.09;4735845;30;20045;-92
2022/07/03 00:39:59;;;;;;;11.15;8.73;;;;;;;16.46;72.25;101684.19;4729504;30;20052;-92
2022/07/03 00:42:37;;;;;;;14.18;9.38;;;;;;;16.44;72.95;101686.03;4740452;30;20036;-93
2022/07/03 00:45:07;;;;;;;11.63;8.67;;;;;;;16.44;72.15;101679.81;4726438;30;20044;-92
2022/07/03 00:47:36;;;;;;;15.40;9.50;;;;;;;16.34;72.02;101660.53;4740052;30;20504;-92
2022/07/03 00:50:07;;;;;;;16.33;9.48;;;;;;;16.36;72.53;101672.06;4723000;30;20401;-93
2022/07/03 00:52:35;;;;;;;;;;;;;;;16.53;69.91;101675.06;4722437;30;20040;-92
2022/07/03 00:55:00;;;;;;;16.77;9.18;;;;;;;16.31;71.58;101663.31;4722275;30;19913;-87
2022/07/03 00:57:28;;;;;;;16.40;9.05;;;;;;;16.33;73.28;101677.50;4721732;30;20393;-87
2022/07/03 00:59:55;;;;;;;13.13;9.18;;;;;;;16.28;74.02;101682.13;4724508;30;20036;-87
2022/07/03 01:02:53;;;;;;;12.25;9.20;;;;;;;16.23;72.25;101682.28;4736449;30;20494;-87
2022/07/03 01:05:42;;;;;;;12.07;8.73;;;;;;;16.23;71.86;101676.94;4725731;30;20048;-86
2022/07/03 01:08:14;;;;;;;11.50;9.30;;;;;;;16.15;73.18;101672.75;4724212;30;20056;-86
2022/07/03 01:11:10;;;;;;;12.38;8.48;;;;;;;16.11;71.86;101661.28;4736830;30;20036;-86
2022/07/03 01:13:59;;;;;;;13.77;8.98;;;;;;;16.13;73.96;101678.16;4723963;30;20131;-87
2022/07/03 01:16:58;;;;;;;17.73;9.55;;;;;;;16.06;72.61;101681.94;4719578;30;20064;-87
2022/07/03 01:19:43;;;;;;;12.10;9.13;;;;;;;16.03;72.61;101679.38;4711280;30;20048;-87
2022/07/03 01:22:37;;;;;;;12.00;9.00;;;;;;;15.95;73.40;101665.34;4725214;30;20043;-86
2022/07/03 01:25:16;;;;;;;13.25;8.32;;;;;;;15.99;73.86;101677.72;4736544;30;20044;-86
2022/07/03 01:28:00;;;;;;;14.18;8.20;;;;;;;15.98;72.20;101690.19;4752391;30;20047;-86
2022/07/03 01:30:36;;;;;;;12.13;8.00;;;;;;;15.88;73.50;101684.25;4721958;30;20040;-87
2022/07/03 01:33:05;;;;;;;11.60;6.90;;;;;;;15.77;73.39;101669.47;4721637;30;20050;-86
2022/07/03 01:35:37;;;;;;;10.23;6.55;;;;;;;15.83;73.28;101675.53;4721778;30;20107;-87
2022/07/03 01:38:08;;;;;;;15.00;6.50;;;;;;;15.74;73.22;101662.44;4725264;30;20036;-87
2022/07/03 01:40:38;;;;;;;9.77;5.80;;;;;;;15.64;72.77;101664.47;4736155;30;20663;-87
2022/07/03 01:43:07;;;;;;;9.25;5.90;;;;;;;15.62;73.80;101655.63;4731014;30;20486;-87
2022/07/03 01:45:38;;;;;;;10.00;6.05;;;;;;;15.60;74.33;101670.84;4715592;30;20435;-88
2022/07/03 01:48:06;;;;;;;10.27;5.57;;;;;;;15.58;72.94;101664.66;4728659;30;20039;-87
2022/07/03 01:50:32;;;;;;;8.30;4.93;;;;;;;15.56;72.36;101660.31;4736367;30;20032;-88
2022/07/03 01:53:01;;;;;;;7.88;4.68;;;;;;;15.62;72.20;101668.97;4721271;30;20073;-87
2022/07/03 01:55:32;;;;;;;11.13;4.63;;;;;;;15.57;72.67;101665.56;4735251;30;20485;-87
2022/07/03 01:58:07;;;;;;;8.95;4.35;;;;;;;15.59;72.05;101658.41;4735944;30;20048;-87
2022/07/03 02:00:42;;;;;;;9.52;4.47;;;;;;;15.64;72.25;101682.28;4710238;30;20374;-88
2022/07/03 02:03:15;;;;;;;9.98;4.35;;;;;;;15.58;71.78;101670.00;4721607;30;20130;-88
2022/07/03 02:05:46;;;;;;;8.77;4.18;;;;;;;15.51;72.35;101663.09;4726457;30;20120;-88
2022/07/03 02:08:15;;;;;;;;;;;;;;;15.69;70.28;101675.03;4721845;30;20486;-88
2022/07/03 02:10:47;;;;;;;5.97;3.80;;;;;;;15.40;73.05;101658.06;4735737;30;20371;-89
2022/07/03 02:13:40;;;;;;;6.47;3.70;;;;;;;15.51;71.67;101668.44;4720743;30;20040;-89
2022/07/03 02:16:20;;;;;;;6.13;3.60;;;;;;;15.41;71.60;101662.50;4728727;30;20476;-89
2022/07/03 02:19:09;;;;;;;10.05;4.00;;;;;;;15.36;71.82;101656.41;4719691;30;20512;-89
2022/07/03 02:21:48;;;;;;;7.05;3.95;;;;;;;15.22;72.23;101646.13;4735177;30;20056;-89
2022/07/03 02:24:21;;;;;;;6.28;3.80;;;;;;;15.19;73.93;101656.88;4720802;30;20028;-89
2022/07/03 02:27:05;;;;;;;6.65;3.78;;;;;;;15.10;72.34;101651.78;4735962;30;20044;-90
2022/07/03 02:30:22;;;;;;;;;;;;;;;;;;;;;
2022/07/03 02:45:58;;;;;;;;;;;;;;;;;;;;;
2022/07/03 03:14:56;;;;;;;;;;;;;;;;;;;;;
2022/07/03 04:52:10;;;;;;;;;;;;;;;;;;;;;
2022/07/03 05:16:52;;;;;;;;;;;;;;;;;;;;;
2022/07/03 05:23:46;;;;;;;;;;;;;;;;;;;;;
2022/07/03 05:42:26;;;;;;;8.73;3.30;;;;;;;16.01;75.36;101726.63;4581118;31;20063;-91
2022/07/03 05:53:13;;;;;;;6.35;3.38;;;;;;;16.21;74.48;101694.81;4557151;31;20052;-90
2022/07/03 05:55:39;;;;;;;8.88;3.58;;;;;;;16.29;74.84;101697.25;4556411;31;20205;-92
2022/07/03 05:58:57;;;;;;;8.32;3.67;;;;;;;16.37;74.20;101699.66;4594079;31;20127;-90
2022/07/03 06:01:34;;;;;;;9.75;3.53;;;;;;;16.46;74.45;101705.59;4579433;31;20045;-90
2022/07/03 06:04:19;;;;;;;;;;;;;;;;;;;;;
2022/07/03 06:06:45;;;;;;;9.65;3.88;;;;;;;16.65;73.71;101721.91;4700081;30;20044;-90
2022/07/03 06:09:25;;;;;;;9.40;3.28;;;;;;;16.54;74.27;101703.56;4691676;30;20519;-90
2022/07/03 06:12:19;;;;;;;11.40;3.17;;;;;;;16.67;74.13;101727.22;4699995;30;20442;-90
2022/07/03 06:14:54;;;;;;;;;;;;;;;;;;;;;
2022/07/03 06:17:40;;;;;;;;;;;;;;;16.81;73.95;101730.31;4700449;30;20187;-90
2022/07/03 06:20:29;;;;;;;7.57;3.05;;;;;;;16.80;74.52;101725.03;4710670;30;19923;-89
2022/07/03 06:23:24;;;;;;;10.55;3.35;;;;;;;17.00;74.69;101735.06;4686498;30;20414;-90
2022/07/03 06:25:52;;;;;;;8.60;3.00;;;;;;;16.99;73.56;101712.78;4694092;30;20473;-89
2022/07/03 06:28:18;;;;;;;10.07;3.60;;;;;;;17.09;74.05;101713.34;4735685;30;20035;-90
2022/07/03 06:30:53;;;;;;;8.57;3.40;;;;;;;17.25;73.80;101716.34;4735714;30;20032;-89
2022/07/03 06:33:18;;;;;;;9.55;3.00;;;;;;;17.32;72.65;101726.75;4736201;30;20043;-90
2022/07/03 06:35:54;;;;;;;;;;;;;;;;;;;;;
2022/07/03 06:38:39;;;;;;;10.73;3.30;;;;;;;17.50;73.14;101730.56;4741502;30;20044;-89
2022/07/03 06:41:27;;;;;;;6.40;2.60;;;;;;;17.59;73.06;101722.19;4728022;30;20120;-91
2022/07/03 06:43:57;;;;;;;8.48;2.47;;;;;;;17.82;72.72;101733.88;4746041;30;20122;-90
2022/07/03 06:46:29;;;;;;;6.93;2.30;;;;;;;17.98;72.23;101735.06;4744849;30;20036;-87
2022/07/03 06:49:12;;;;;;;5.68;2.35;;;;;;;17.99;71.58;101722.53;4739152;30;20051;-88
2022/07/03 06:51:50;;;;;;;6.22;2.20;;;;;;;18.07;71.14;101720.41;4687709;30;20044;-89
2022/07/03 06:54:20;;;;;;;5.20;2.25;;;;;;;18.10;71.15;101719.41;4736055;30;20040;-88
2022/07/03 06:56:59;;;;;;;8.98;2.70;;;;;;;18.24;71.02;101720.63;4738922;30;20052;-89
2022/07/03 06:59:31;;;;;;;7.93;2.97;;;;;;;18.26;70.60;101717.88;4724609;30;20059;-88
2022/07/03 07:02:27;;;;;;;5.93;2.28;;;;;;;18.30;70.83;101700.75;4724069;30;20036;-89
2022/07/03 07:05:01;;;;;;;8.73;2.85;;;;;;;18.49;70.86;101719.63;4723043;30;20091;-88
2022/07/03 07:07:33;;;;;;;6.05;2.47;;;;;;;18.65;70.29;101723.44;4724720;30;20055;-89
2022/07/03 07:10:04;;;;;;;8.38;2.42;;;;;;;18.72;69.24;101724.06;4738510;30;20060;-87
2022/07/03 07:12:58;;;;;;;6.32;2.45;;;;;;;18.75;68.92;101712.31;4739967;30;20048;-88
2022/07/03 07:15:36;;;;;;;7.70;2.63;;;;;;;18.87;68.28;101711.84;4733065;30;20072;-89
2022/07/03 07:18:02;;;;;;;6.40;2.22;;;;;;;18.94;67.95;101710.66;4752989;30;20051;-88
2022/07/03 07:21:07;;;;;;;7.78;2.30;;;;;;;19.02;67.50;101713.00;4722542;30;20033;-89
2022/07/03 07:23:41;;;;;;;6.90;2.40;;;;;;;19.16;67.60;101731.16;4721960;30;20040;-87
2022/07/03 07:26:07;;;;;;;5.82;2.22;;;;;;;19.19;66.97;101736.41;4738451;30;20455;-88
2022/07/03 07:28:34;;;;;;;9.43;2.60;;;;;;;19.16;65.44;101732.03;4738568;30;20038;-87
2022/07/03 07:31:15;;;;;;;8.68;2.08;;;;;;;19.19;65.75;101722.97;4738480;30;20090;-88
2022/07/03 07:33:47;;;;;;;5.53;1.92;;;;;;;19.30;63.84;101742.19;4753608;30;20044;-87
2022/07/03 07:36:17;;;;;;;6.60;2.40;;;;;;;19.27;65.11;101745.00;4723644;30;20051;-87
2022/07/03 07:38:57;;;;;;;6.22;2.33;;;;;;;19.33;64.12;101734.84;4737888;30;20385;-88
2022/07/03 07:44:50;;;;;;;8.40;2.17;;;;;;;19.65;64.32;101754.03;4720821;30;20476;-89
2022/07/03 07:47:16;;;;;;;6.05;2.40;;;;;;;19.54;62.90;101733.03;4731002;30;20100;-87
2022/07/03 07:49:48;;;;;;;10.60;2.38;;;;;;;19.72;63.84;101741.22;4720782;30;20033;-88
2022/07/03 07:52:19;;;;;;;6.05;2.28;;;;;;;19.71;61.87;101743.06;4748810;30;20036;-87
2022/07/03 07:54:50;;;;;;;6.43;2.05;;;;;;;19.79;62.49;101742.69;4738279;30;20547;-87
2022/07/03 07:57:41;;;;;;;7.63;2.40;;;;;;;19.70;62.13;101726.97;4732806;30;20048;-88
2022/07/03 08:00:28;;;;;;;4.88;2.08;;;;;;;19.79;62.34;101721.19;4729821;30;20494;-86
2022/07/03 08:05:41;;;;;;;5.93;2.50;;;;;;;19.88;60.74;101726.16;4745195;30;20111;-88
2022/07/03 08:08:26;;;;;;;9.82;2.45;;;;;;;20.01;61.05;101733.63;4735055;30;20109;-90
2022/07/03 08:10:52;;;;;;;6.30;2.13;;;;;;;20.16;61.59;101739.16;4745020;30;20102;-89
2022/07/03 08:13:28;;;;;;;7.53;2.30;;;;;;;20.31;61.29;101748.28;4739222;30;20044;-87
2022/07/03 08:16:27;;;;;;;;;;;;;;;;;;;;;
2022/07/03 08:19:12;;;;;;;4.07;1.80;;;;;;;20.40;59.55;101738.91;4732402;30;20051;-89
2022/07/03 08:21:41;;;;;;;6.20;1.88;;;;;;;20.51;59.01;101741.06;4732230;30;20060;-91
2022/07/03 08:24:16;;;;;;;9.23;2.42;;;;;;;20.41;58.13;101733.44;4730848;30;20031;-91
2022/07/03 08:26:49;;;;;;;5.60;2.15;;;;;;;20.49;59.42;101748.34;4709797;30;20056;-91
2022/07/03 08:29:27;;;;;;;11.85;2.00;;;;;;;20.66;59.20;101752.94;4730063;30;20133;-91
2022/07/03 08:31:53;;;;;;;7.20;2.05;;;;;;;20.74;59.01;101758.78;4722709;30;20039;-91
2022/07/03 08:34:21;;;;;;;8.52;2.70;;;;;;;20.57;58.85;101751.56;4719402;30;20125;-90
2022/07/03 08:36:53;;;;;;;6.22;2.03;;;;;;;20.60;59.71;101744.22;4737507;30;20040;-91
2022/07/03 08:39:25;;;;;;;7.60;2.20;;;;;;;20.87;58.52;101757.25;4737795;30;20098;-91
2022/07/03 08:42:00;;;;;;;5.68;2.35;;;;;;;20.96;58.89;101753.19;4731279;30;20067;-90
2022/07/03 08:44:37;;;;;;;6.43;1.60;;;;;;;20.90;57.33;101737.38;4723009;30;20048;-91
2022/07/03 08:47:15;;;;;;;5.57;1.73;;;;;;;21.13;57.15;101755.03;4712712;30;20037;-90
2022/07/03 08:49:44;;;;;;;6.88;2.03;;;;;;;21.00;57.60;101739.50;4720678;30;20373;-90
2022/07/03 08:52:11;;;;;;;7.35;2.30;;;;;;;21.17;57.39;101748.56;4735954;30;20055;-91
2022/07/03 08:54:39;;;;;;;6.53;2.03;;;;;;;21.41;57.64;101749.09;4734184;30;20042;-90
2022/07/03 08:57:24;;;;;;;5.53;2.08;;;;;;;21.45;56.42;101737.22;4749373;30;20039;-90
2022/07/03 08:59:53;;;;;;;7.13;1.90;;;;;;;21.50;57.38;101732.44;4736582;30;20040;-91
2022/07/03 09:02:23;;;;;;;6.38;2.15;;;;;;;21.41;56.32;101743.72;4714991;30;20040;-92
2022/07/03 09:04:57;;;;;;;7.07;2.13;;;;;;;21.34;58.37;101735.06;4733937;30;20056;-91
2022/07/03 09:07:49;;;;;;;2.90;1.43;;;;;;;21.38;56.51;101749.22;4703923;30;20596;-89
2022/07/03 09:10:17;;;;;;;4.63;1.60;;;;;;;21.23;54.57;101734.75;4734927;30;20126;-89
2022/07/03 09:12:54;;;;;;;3.90;1.70;;;;;;;21.29;55.06;101736.25;4724309;30;20052;-88
2022/07/03 09:15:21;;;;;;;4.50;1.58;;;;;;;21.23;55.72;101730.22;4736600;30;20097;-89
2022/07/03 09:18:05;;;;;;;5.43;1.90;;;;;;;21.52;56.09;101738.63;4739284;30;20047;-88
2022/07/03 09:20:37;;;;;;;4.80;1.90;;;;;;;21.76;55.37;101740.94;4707721;30;20040;-89
2022/07/03 09:23:10;;;;;;;5.90;1.80;;;;;;;21.97;54.89;101750.56;4714325;30;20546;-89
2022/07/03 09:25:50;;;;;;;5.30;1.92;;;;;;;22.07;53.70;101741.00;4720289;30;20047;-89
2022/07/03 09:28:20;;;;;;;6.88;1.88;;;;;;;22.25;53.22;101741.81;4724064;30;20554;-88
2022/07/03 09:31:02;;;;;;;4.80;1.98;;;;;;;22.47;53.97;101738.75;4718566;30;20040;-88
2022/07/03 09:33:28;;;;;;;4.78;1.90;;;;;;;22.76;53.52;101745.16;4735327;30;20040;-89
2022/07/03 09:35:55;;;;;;;3.63;1.98;;;;;;;22.93;53.05;101746.00;4728604;30;20029;-89
2022/07/03 09:38:27;;;;;;;5.18;2.28;;;;;;;22.79;51.28;101743.25;4750483;30;20149;-88
2022/07/03 09:40:54;;;;;;;6.47;2.35;;;;;;;22.28;51.66;101751.59;4721141;30;20048;-88
2022/07/03 09:43:24;;;;;;;7.18;2.33;;;;;;;21.96;53.48;101778.50;4718600;30;20158;-89
2022/07/03 09:45:55;;;;;;;8.00;2.20;;;;;;;21.89;54.08;101752.81;4721478;30;20047;-89
2022/07/03 09:48:23;;;;;;;4.68;2.22;;;;;;;22.16;53.11;101777.38;4733178;30;20382;-89
2022/07/03 09:51:25;;;;;;;7.95;2.30;;;;;;;22.34;52.88;101772.81;4721949;30;20383;-89
2022/07/03 09:54:01;;;;;;;5.13;2.60;;;;;;;22.53;52.68;101762.72;4717489;30;20069;-88
2022/07/03 09:56:35;;;;;;;4.68;1.88;;;;;;;22.73;51.60;101771.47;4734035;30;20051;-88
2022/07/03 09:59:12;;;;;;;6.70;2.08;;;;;;;22.59;52.29;101761.47;4715487;30;20036;-88
2022/07/03 10:01:39;;;;;;;4.93;2.50;;;;;;;22.59;50.68;101757.91;4731658;30;20063;-88
2022/07/03 10:04:19;;;;;;;6.32;2.15;;;;;;;22.59;51.61;101758.78;4737133;30;20448;-89
2022/07/03 10:07:23;;;;;;;8.32;2.40;;;;;;;22.72;51.61;101761.63;4736161;30;20048;-88
2022/07/03 10:09:54;;;;;;;5.90;2.13;;;;;;;22.28;51.52;101755.16;4727531;30;20163;-88
2022/07/03 10:12:43;;;;;;;6.10;2.25;;;;;;;21.94;52.83;101758.81;4724332;30;20093;-89
2022/07/03 10:15:15;;;;;;;4.47;1.80;;;;;;;22.06;53.68;101762.66;4722458;30;20040;-87
2022/07/03 10:17:44;;;;;;;4.85;2.08;;;;;;;22.28;53.24;101773.16;4707540;30;20048;-89
2022/07/03 10:20:49;;;;;;;5.03;2.13;;;;;;;22.30;52.52;101766.72;4727774;30;20051;-88
2022/07/03 10:27:56;;;;;;;5.63;2.03;;;;;;;22.02;53.21;101788.94;4627138;30;20062;-89
2022/07/03 10:31:03;;;;;;;3.53;1.60;;;;;;;22.46;51.13;101773.94;4602468;31;20051;-88
2022/07/03 10:34:16;;;;;;;4.00;1.50;;;;;;;22.89;51.01;101782.25;4588953;31;20399;-89
2022/07/03 10:37:19;;;;;;;4.95;1.80;;;;;;;23.03;49.81;101760.72;4596370;31;20063;-88
2022/07/03 10:44:45;;;;;;;5.18;1.98;;;;;;;23.22;49.75;101781.22;4612867;30;20046;-88
2022/07/03 10:46:15;;;;;;;5.65;1.60;;;;;;;23.48;48.32;101776.94;4698951;30;20073;-88
2022/07/03 10:49:24;;;;;;;4.68;1.85;;;;;;;23.72;50.10;101783.53;4678270;30;20058;-87
2022/07/03 10:52:00;;;;;;;5.10;1.50;;;;;;;24.10;48.19;101779.41;4658642;30;20046;-88
2022/07/03 10:54:38;;;;;;;3.80;1.35;;;;;;;24.05;45.78;101766.19;4695925;30;20087;-88
2022/07/03 10:57:10;;;;;;;7.07;2.03;;;;;;;23.95;45.12;101782.13;4728633;30;20048;-88
2022/07/03 10:59:42;;;;;;;4.53;1.77;;;;;;;23.95;46.54;101784.81;4723415;30;20055;-87
2022/07/03 11:02:40;;;;;;;3.72;1.17;;;;;;;23.91;45.26;101779.69;4735802;30;20048;-88
2022/07/03 11:05:18;;;;;;;4.32;1.38;;;;;;;23.51;45.69;101777.63;4737262;30;20040;-91
2022/07/03 11:07:49;;;;;;;5.07;1.67;;;;;;;23.42;46.69;101774.59;4723356;30;20051;-91
2022/07/03 11:10:15;;;;;;;5.57;1.48;;;;;;;23.60;47.57;101781.59;4737410;30;20055;-90
2022/07/03 11:12:56;;;;;;;5.75;1.70;;;;;;;23.44;46.79;101778.94;4736692;30;20048;-90
2022/07/03 11:15:35;;;;;;;7.82;1.95;;;;;;;23.48;47.27;101771.53;4722735;30;20111;-90
2022/07/03 11:18:32;;;;;;;4.65;1.70;;;;;;;23.90;47.29;101759.91;4752395;30;20071;-90
2022/07/03 11:21:01;;;;;;;5.50;1.67;;;;;;;24.04;45.65;101772.56;4733027;30;20102;-92
2022/07/03 11:23:26;;;;;;;6.75;1.52;;;;;;;23.76;47.12;101773.44;4738875;30;20473;-92
2022/07/03 11:26:12;;;;;;;5.20;1.70;;;;;;;23.20;46.94;101765.13;4730365;30;20044;-92
2022/07/03 11:28:40;;;;;;;6.38;1.52;;;;;;;23.09;47.04;101771.16;4738859;30;20044;-93
2022/07/03 11:31:10;;;;;;;7.85;1.58;;;;;;;22.95;46.67;101757.59;4722692;30;20032;-90
2022/07/03 11:33:45;;;;;;;3.78;1.50;;;;;;;22.96;48.96;101753.91;4718128;30;20040;-92
2022/07/03 11:36:17;;;;;;;3.75;1.42;;;;;;;23.01;46.81;101764.47;4721814;30;20036;-90
2022/07/03 11:38:44;;;;;;;6.38;1.95;;;;;;;23.15;46.41;101748.31;4712949;30;20044;-94
2022/07/03 11:41:22;;;;;;;7.57;1.42;;;;;;;23.41;48.24;101757.53;4738578;30;20032;-92
2022/07/03 11:43:49;;;;;;;2.72;1.20;;;;;;;23.67;44.13;101760.47;4727033;30;20131;-88
2022/07/03 11:46:24;;;;;;;2.53;1.30;;;;;;;23.64;44.44;101753.41;4709498;30;20060;-89
2022/07/03 11:49:03;;;;;;;6.53;1.92;;;;;;;23.72;43.25;101748.38;4738079;30;20464;-87
2022/07/03 11:51:29;;;;;;;2.40;1.20;;;;;;;23.86;43.12;101752.94;4723697;30;20032;-89
2022/07/03 11:53:54;;;;;;;5.07;1.60;;;;;;;23.73;43.90;101750.16;4723594;30;20115;-87
2022/07/03 11:56:33;;;;;;;4.75;1.20;;;;;;;23.81;45.20;101747.84;4713041;30;20493;-87
2022/07/03 11:59:00;;;;;;;4.85;1.38;;;;;;;24.09;44.72;101754.19;4738504;30;20055;-87
2022/07/03 12:01:26;;;;;;;4.85;1.45;;;;;;;24.04;42.98;101759.91;4737934;30;20032;-89
2022/07/03 12:04:18;;;;;;;2.67;1.38;;;;;;;24.08;45.38;101748.88;4723841;30;20036;-86
2022/07/03 12:06:53;;;;;;;4.38;1.48;;;;;;;24.35;43.92;101757.91;4754010;30;20075;-85
2022/07/03 12:09:34;;;;;;;3.40;1.83;;;;;;;24.01;43.31;101745.69;4723028;30;20536;-87
2022/07/03 12:12:01;;;;;;;;;;;;;;;24.32;43.70;101751.84;4707981;30;20037;-88
2022/07/03 12:14:57;;;;;;;3.90;1.23;;;;;;;24.22;43.15;101762.38;4719933;30;19926;-88
2022/07/03 12:17:29;;;;;;;5.22;1.25;;;;;;;23.58;40.94;101751.09;4692799;30;20055;-88
2022/07/03 12:19:58;;;;;;;4.10;1.38;;;;;;;23.45;42.34;101747.41;4716540;30;20482;-87
2022/07/03 12:22:26;;;;;;;3.30;1.40;;;;;;;23.82;44.26;101741.47;4720077;30;20075;-86
2022/07/03 12:25:46;;;;;;;5.88;1.20;;;;;;;24.00;41.80;101738.53;4705525;30;20051;-90
2022/07/03 12:28:18;;;;;;;5.70;1.10;;;;;;;24.18;42.89;101728.38;4698119;30;20131;-87
2022/07/03 12:30:45;;;;;;;4.38;1.52;;;;;;;24.21;40.98;101742.59;4731606;30;20330;-86
2022/07/03 12:33:16;;;;;;;3.65;1.48;;;;;;;24.54;42.67;101743.19;4714582;30;20028;-89
2022/07/03 12:36:11;;;;;;;3.67;1.13;;;;;;;24.63;40.89;101734.47;4733942;30;20494;-88
2022/07/03 12:38:46;;;;;;;6.47;1.35;;;;;;;24.68;41.13;101738.59;4707344;30;20094;-86
2022/07/03 12:41:17;;;;;;;2.93;1.40;;;;;;;24.74;41.16;101744.56;4727901;30;20388;-86
2022/07/03 12:43:48;;;;;;;4.63;1.23;;;;;;;24.56;40.61;101739.41;4707223;30;20301;-88
2022/07/03 12:46:23;;;;;;;4.80;1.40;;;;;;;24.15;42.35;101751.09;4744305;30;20072;-87
2022/07/03 12:49:32;;;;;;;5.35;1.30;;;;;;;24.30;42.47;101754.63;4704582;30;20044;-87
2022/07/03 12:51:58;;;;;;;3.67;1.42;;;;;;;24.08;44.01;101762.41;4729865;30;20054;-88
2022/07/03 12:54:39;;;;;;;2.80;1.42;;;;;;;24.07;42.97;101741.75;4715716;30;20024;-87
2022/07/03 13:00:12;;;;;;;2.90;1.08;;;;;;;24.04;41.82;101764.44;4718864;30;20036;-88
2022/07/03 13:02:39;;;;;;;3.03;1.02;;;;;;;23.84;42.34;101752.19;4741399;30;20032;-87
2022/07/03 13:05:17;;;;;;;6.15;1.60;;;;;;;23.60;40.76;101752.72;4734071;30;20028;-87
2022/07/03 13:08:14;;;;;;;2.70;1.08;;;;;;;24.03;43.36;101744.66;4721837;30;20067;-87
2022/07/03 13:10:59;;;;;;;3.30;1.10;;;;;;;24.10;40.97;101742.41;4702893;30;20052;-88
2022/07/03 13:13:51;;;;;;;3.25;1.08;;;;;;;23.82;40.40;101757.69;4735896;30;20520;-88
2022/07/03 13:16:50;;;;;;;4.47;1.13;;;;;;;23.51;42.03;101747.00;4722054;30;20516;-88
2022/07/03 13:19:21;;;;;;;3.75;0.85;;;;;;;23.85;43.26;101735.00;4704596;30;20052;-86
2022/07/03 13:21:47;;;;;;;4.85;1.02;;;;;;;24.30;40.77;101740.22;4747929;30;20123;-86
2022/07/03 13:24:26;;;;;;;3.80;1.05;;;;;;;24.38;41.46;101743.28;4721704;30;20028;-88
2022/07/03 13:26:53;;;;;;;4.60;0.90;;;;;;;24.66;42.19;101748.66;4736303;30;20043;-88
2022/07/03 13:29:27;;;;;;;3.10;1.48;;;;;;;24.34;42.08;101747.19;4721913;30;20111;-88
2022/07/03 13:31:54;;;;;;;5.22;2.22;;;;;;;24.07;42.94;101753.41;4722124;30;20132;-88
2022/07/03 13:34:38;;;;;;;4.07;1.67;;;;;;;23.70;43.32;101744.91;4736362;30;20042;-87
2022/07/03 13:37:12;;;;;;;6.97;1.73;;;;;;;23.70;44.76;101763.84;4737131;30;20036;-88
2022/07/03 13:39:38;;;;;;;5.22;1.88;;;;;;;24.01;43.96;101761.91;4722117;30;20048;-87
2022/07/03 13:42:21;;;;;;;3.65;1.48;;;;;;;24.32;43.09;101750.00;4721084;30;20042;-88
2022/07/03 13:44:50;;;;;;;6.88;1.60;;;;;;;24.52;42.49;101746.00;4695887;30;20442;-87
2022/07/03 13:47:21;;;;;;;5.35;1.65;;;;;;;24.54;42.85;101754.03;4735645;30;20090;-88
2022/07/03 13:49:47;;;;;;;4.60;1.67;;;;;;;24.42;42.83;101744.84;4735922;30;20066;-87
2022/07/03 13:52:26;;;;;;;7.20;1.70;;;;;;;24.19;41.50;101754.47;4718771;30;20375;-88
2022/07/03 13:54:52;;;;;;;4.38;1.60;;;;;;;23.88;42.35;101745.59;4708053;30;20051;-87
2022/07/03 13:58:06;;;;;;;3.50;2.10;;;;;;;23.60;43.02;101774.34;4751510;30;20028;-87
2022/07/03 14:00:48;;;;;;;3.47;1.55;;;;;;;23.38;44.34;101763.13;4736454;30;20071;-88
2022/07/03 14:03:50;;;;;;;3.47;1.50;;;;;;;23.26;44.52;101766.56;4722226;30;20127;-88
2022/07/03 14:06:30;;;;;;;3.95;1.45;;;;;;;23.24;44.60;101763.09;4752651;30;20120;-87
2022/07/03 14:09:05;;;;;;;6.80;1.83;;;;;;;23.34;45.14;101780.47;4727454;30;20482;-87
2022/07/03 14:12:05;;;;;;;;;;;;;;;;;;;;;
2022/07/03 14:14:31;;;;;;;7.17;1.87;;;;;;;24.23;44.31;101773.13;4723750;30;20044;-88
2022/07/03 14:17:28;;;;;;;5.78;2.03;;;;;;;24.10;43.24;101790.25;4736350;30;20082;-88
2022/07/03 14:19:59;;;;;;;4.82;1.70;;;;;;;23.89;44.92;101776.25;4726794;30;20040;-88
2022/07/03 14:22:43;;;;;;;3.83;1.48;;;;;;;23.86;44.25;101776.41;4739983;30;20044;-87
2022/07/03 14:25:10;;;;;;;4.72;2.00;;;;;;;23.51;44.51;101785.72;4735997;30;20044;-88
2022/07/03 14:37:47;;;;;;;3.80;1.33;;;;;;;23.28;46.41;101778.16;4686225;30;20118;-87
2022/07/03 14:40:16;;;;;;;7.68;1.80;;;;;;;23.93;45.43;101791.31;4701460;30;20518;-88
2022/07/03 14:43:07;;;;;;;3.67;1.30;;;;;;;24.38;43.72;101800.16;4741755;30;20470;-88
2022/07/03 14:49:01;;;;;;;3.92;1.58;;;;;;;24.48;41.52;101800.44;4735184;30;20056;-88
2022/07/03 14:51:33;;;;;;;3.60;1.20;;;;;;;24.30;42.46;101787.09;4749596;30;20048;-88
2022/07/03 14:54:01;;;;;;;6.85;1.83;;;;;;;24.36;40.82;101796.69;4731009;30;20052;-88
2022/07/03 14:56:42;;;;;;;4.90;1.83;;;;;;;24.64;41.30;101791.22;4731805;30;20036;-87
2022/07/03 14:59:42;;;;;;;3.53;1.40;;;;;;;24.88;41.28;101796.84;4724954;30;20454;-89
2022/07/03 15:02:51;;;;;;;3.45;1.10;;;;;;;25.05;40.67;101801.13;4712516;30;20408;-88
2022/07/03 15:05:32;;;;;;;4.43;1.48;;;;;;;24.94;40.98;101805.53;4742553;30;20119;-87
2022/07/03 15:08:19;;;;;;;3.95;1.27;;;;;;;24.93;41.96;101807.38;4738505;30;20059;-88
2022/07/03 15:10:57;;;;;;;3.97;1.20;;;;;;;25.30;42.26;101794.94;4743532;30;20135;-87
2022/07/03 15:13:35;;;;;;;3.55;1.27;;;;;;;25.25;41.99;101796.22;4733255;30;20044;-86
2022/07/03 15:16:12;;;;;;;3.33;1.10;;;;;;;25.38;40.63;101807.97;4710337;30;20510;-87
2022/07/03 15:18:44;;;;;;;4.25;1.42;;;;;;;24.85;40.19;101807.91;4710744;30;20079;-88
2022/07/03 15:21:12;;;;;;;6.07;1.10;;;;;;;24.72;41.91;101803.38;4719909;30;20494;-89
2022/07/03 15:23:41;;;;;;;3.40;1.40;;;;;;;24.40;41.79;101803.63;4723423;30;20043;-88
2022/07/03 15:26:42;;;;;;;;;;;;;;;;;;;;;
2022/07/03 15:29:36;;;;;;;;;;;;;;;;;;;;;
2022/07/03 15:32:39;;;;;;;1.73;1.00;;;;;;;24.30;42.52;101795.22;4720309;30;20068;-88
2022/07/03 15:36:10;;;;;;;;;;;;;;;;;;;;;
2022/07/03 15:42:57;;;;;;;2.33;0.95;;;;;;;23.53;41.36;101809.97;4672396;30;20108;-88
2022/07/03 15:46:06;;;;;;;2.38;1.10;;;;;;;23.55;41.25;101810.75;4681840;30;20070;-88
2022/07/03 15:49:19;;;;;;;4.57;0.80;;;;;;;23.64;42.37;101817.41;4683999;30;20045;-87
2022/07/03 15:55:41;;;;;;;4.22;0.95;;;;;;;23.53;41.42;101807.28;4664646;30;20057;-88
2022/07/03 15:58:32;;;;;;;2.53;1.08;;;;;;;23.64;41.35;101817.41;4682424;30;20213;-88
2022/07/03 16:12:32;;;;;;;6.03;1.20;;;;;;;24.15;41.36;101818.75;4688084;30;20045;-87
2022/07/03 16:19:17;;;;;;;;;;;;;;;;;;;;;
2022/07/03 16:26:04;;;;;;;5.72;1.25;;;;;;;24.70;38.29;101800.78;4664145;30;20058;-88
2022/07/03 16:32:04;;;;;;;6.22;1.05;;;;;;;24.96;37.42;101804.47;4664262;30;20496;-88
2022/07/03 16:34:48;;;;;;;;;;;;;;;;;;;;;
2022/07/03 16:42:32;;;;;;;;;;;;;;;;;;;;;
2022/07/03 16:45:32;;;;;;;3.30;1.23;;;;;;;25.48;36.81;101814.47;4689748;30;20056;-88
2022/07/03 16:48:33;;;;;;;2.35;0.90;;;;;;;25.81;35.81;101815.78;4713575;30;20041;-88
2022/07/03 16:51:12;;;;;;;1.63;0.70;;;;;;;25.83;35.17;101808.41;4685699;30;20491;-89